Time;durP1;ratioP1;P1;durP2;ratioP2;P2;SDS_P1;SDS_P2;PMS_P1;PMS_P2;Temp;Humidity;BMP_temperature;BMP_pressure;BME280_temperature;BME280_humidity;BME280_pressure;Samples;Min_cycle;Max_cycle;Signal;HPM_P1;HPM_P2
2023/06/20 00:02:32;;;;;;;8.98;4.80;;;;;;;20.83;47.41;99758.50;7711484;32;38022;-85
2023/06/20 00:06:48;;;;;;;8.55;4.97;;;;;;;20.77;47.63;99757.13;7711505;32;39736;-85
2023/06/20 00:11:05;;;;;;;7.80;4.65;;;;;;;20.76;47.97;99759.06;7711287;32;40543;-84
2023/06/20 00:15:25;;;;;;;8.07;4.65;;;;;;;20.71;48.18;99756.50;7710574;32;38608;-84
2023/06/20 00:19:42;;;;;;;9.35;4.78;;;;;;;20.58;48.93;99763.13;7711637;32;37877;-84
2023/06/20 00:23:59;;;;;;;8.20;5.03;;;;;;;20.74;48.55;99760.56;7711295;32;40502;-85
2023/06/20 00:28:18;;;;;;;10.55;5.15;;;;;;;20.52;49.46;99770.00;7711107;32;40762;-84
2023/06/20 00:32:34;;;;;;;10.23;4.95;;;;;;;20.65;49.23;99773.69;7711029;32;38012;-84
2023/06/20 00:36:51;;;;;;;8.25;5.00;;;;;;;20.49;49.83;99774.28;7711083;32;37793;-85
2023/06/20 00:41:07;;;;;;;10.32;5.15;;;;;;;20.48;49.73;99780.97;7710997;32;39084;-85
2023/06/20 00:45:30;;;;;;;8.10;4.60;;;;;;;20.52;49.74;99770.81;7710949;32;40786;-85
2023/06/20 00:49:48;;;;;;;;;;;;;;;20.51;49.94;99771.97;7711334;32;38021;-84
2023/06/20 00:54:04;;;;;;;9.25;5.35;;;;;;;20.65;49.61;99774.50;7711036;32;36824;-84
2023/06/20 00:58:21;;;;;;;8.85;5.12;;;;;;;20.69;49.41;99780.16;7710697;32;39060;-84
2023/06/20 01:02:37;;;;;;;11.07;5.40;;;;;;;20.71;49.80;99778.66;7710764;32;40605;-87
2023/06/20 01:07:07;;;;;;;8.27;5.28;;;;;;;20.82;49.57;99773.53;7710540;32;37920;-87
2023/06/20 01:11:30;;;;;;;8.07;5.15;;;;;;;20.69;49.57;99782.94;7698117;32;37228;-86
2023/06/20 01:15:47;;;;;;;8.13;5.50;;;;;;;20.40;51.24;99787.37;7696777;32;40464;-87
2023/06/20 01:20:12;;;;;;;9.10;5.97;;;;;;;20.52;50.96;99779.13;7710376;32;39714;-87
2023/06/20 01:24:38;;;;;;;10.18;5.85;;;;;;;20.51;51.09;99779.47;7696869;32;38656;-87
2023/06/20 01:29:08;;;;;;;9.25;5.60;;;;;;;20.28;51.90;99785.34;7709996;32;38131;-87
2023/06/20 01:33:28;;;;;;;8.68;5.12;;;;;;;20.51;51.31;99771.19;7710030;32;39452;-88
2023/06/20 01:37:46;;;;;;;9.32;5.60;;;;;;;20.54;51.40;99776.84;7696637;32;39959;-88
2023/06/20 01:42:04;;;;;;;9.02;4.82;;;;;;;20.62;51.14;99766.84;7696209;32;38879;-89
2023/06/20 01:46:21;;;;;;;8.27;5.32;;;;;;;20.67;50.91;99771.38;7696199;32;37141;-87
2023/06/20 01:50:38;;;;;;;9.32;6.03;;;;;;;20.76;50.62;99749.94;7709752;32;39435;-87
2023/06/20 01:54:57;;;;;;;8.05;5.20;;;;;;;20.67;50.75;99749.22;7709372;32;39977;-87
2023/06/20 01:59:14;;;;;;;8.40;5.18;;;;;;;20.76;50.32;99756.28;7696166;32;37760;-87
2023/06/20 02:03:31;;;;;;;8.40;5.53;;;;;;;20.60;51.03;99756.09;7695731;32;37293;-88
2023/06/20 02:07:49;;;;;;;11.45;5.53;;;;;;;20.68;51.30;99759.97;7695541;32;39380;-87
2023/06/20 02:12:07;;;;;;;8.75;5.75;;;;;;;20.51;52.29;99760.09;7708927;32;39699;-87
2023/06/20 02:16:25;;;;;;;11.57;6.15;;;;;;;20.56;52.73;99766.22;7708984;32;37767;-87
2023/06/20 02:20:41;;;;;;;8.18;5.43;;;;;;;20.41;53.40;99764.09;7695358;32;36857;-87
2023/06/20 02:25:04;;;;;;;11.40;5.95;;;;;;;20.40;53.46;99762.44;7708834;32;39217;-86
2023/06/20 02:29:22;;;;;;;10.00;5.87;;;;;;;20.31;53.75;99770.03;7695451;32;39935;-89
2023/06/20 02:33:40;;;;;;;10.50;6.30;;;;;;;20.18;54.01;99778.25;7708144;32;36947;-87
2023/06/20 02:37:58;;;;;;;12.95;5.82;;;;;;;20.13;54.13;99775.69;7711708;32;36042;-87
2023/06/20 02:42:15;;;;;;;9.73;5.22;;;;;;;20.51;53.12;99774.75;7698945;32;39586;-87
2023/06/20 02:46:50;;;;;;;8.45;5.10;;;;;;;20.35;53.46;99770.97;7712385;32;40753;-87
2023/06/20 02:51:22;;;;;;;9.13;5.30;;;;;;;20.30;54.55;99763.69;7687954;32;37835;-88
2023/06/20 02:55:50;;;;;;;11.93;6.45;;;;;;;20.32;54.82;99766.13;7712324;32;37372;-88
2023/06/20 03:00:09;;;;;;;9.32;5.40;;;;;;;20.44;54.68;99774.50;7712235;32;39279;-89
2023/06/20 03:04:33;;;;;;;10.02;5.35;;;;;;;20.45;54.63;99776.09;7698964;32;39845;-87
2023/06/20 03:08:50;;;;;;;9.38;5.53;;;;;;;20.46;54.57;99774.94;7712146;32;37949;-88
2023/06/20 03:13:06;;;;;;;10.88;6.00;;;;;;;20.43;55.11;99795.00;7698444;32;37086;-88
2023/06/20 03:17:23;;;;;;;10.30;5.28;;;;;;;20.34;55.81;99797.03;7712159;32;39031;-88
2023/06/20 03:21:40;;;;;;;10.95;5.45;;;;;;;20.24;56.50;99787.16;7711991;32;40999;-88
2023/06/20 03:25:57;;;;;;;8.77;5.80;;;;;;;20.12;56.83;99790.66;7711912;32;38828;-88
2023/06/20 03:30:14;;;;;;;9.43;5.68;;;;;;;20.50;55.44;99797.25;7711744;32;36842;-88
2023/06/20 03:34:31;;;;;;;9.00;5.60;;;;;;;20.30;55.86;99804.38;7711703;32;39032;-88
2023/06/20 03:38:47;;;;;;;9.10;5.80;;;;;;;20.43;55.48;99806.88;7711785;32;39960;-87
2023/06/20 03:43:04;;;;;;;11.45;5.78;;;;;;;20.77;54.55;99798.66;7711713;32;38622;-89
2023/06/20 03:47:20;;;;;;;8.63;5.72;;;;;;;20.78;54.57;99803.03;7710617;32;37163;-88
2023/06/20 03:51:38;;;;;;;9.70;5.95;;;;;;;20.83;54.42;99808.38;7711617;32;39411;-87
2023/06/20 03:55:54;;;;;;;9.45;6.10;;;;;;;20.66;55.50;99814.88;7697984;32;39981;-88
2023/06/20 04:00:12;;;;;;;11.12;6.30;;;;;;;20.61;55.39;99815.88;7711649;32;38633;-88
2023/06/20 04:04:29;;;;;;;8.32;5.70;;;;;;;20.46;56.28;99810.94;7711500;32;37271;-87
2023/06/20 04:08:46;;;;;;;10.02;5.85;;;;;;;20.44;56.41;99818.78;7711561;32;40001;-87
2023/06/20 04:13:02;;;;;;;8.25;5.85;;;;;;;20.39;57.08;99807.91;7711272;32;39963;-88
2023/06/20 04:17:18;;;;;;;7.90;5.47;;;;;;;20.43;56.97;99815.19;7697417;32;38603;-88
2023/06/20 04:21:35;;;;;;;10.70;6.57;;;;;;;20.63;56.75;99815.56;7711265;32;37210;-87
2023/06/20 04:25:51;;;;;;;10.82;6.40;;;;;;;20.94;56.22;99804.03;7711252;32;39080;-87
2023/06/20 04:30:08;;;;;;;10.98;5.57;;;;;;;20.79;57.29;99808.25;7710918;32;39982;-87
2023/06/20 04:34:24;;;;;;;8.68;5.75;;;;;;;20.93;57.00;99816.25;7710985;32;37914;-87
2023/06/20 04:38:44;;;;;;;9.00;5.55;;;;;;;20.98;56.13;99810.50;7711102;32;37719;-88
2023/06/20 04:43:00;;;;;;;11.05;6.00;;;;;;;20.86;57.13;99802.16;7711084;32;39607;-87
2023/06/20 04:47:17;;;;;;;12.20;6.55;;;;;;;20.95;57.04;99805.63;7710964;32;40622;-87
2023/06/20 04:51:33;;;;;;;9.50;5.97;;;;;;;21.03;56.70;99809.50;7710808;32;37984;-87
2023/06/20 04:55:50;;;;;;;11.63;6.47;;;;;;;21.25;56.47;99818.53;7710779;32;37755;-88
2023/06/20 05:00:12;;;;;;;10.07;6.15;;;;;;;21.20;57.32;99814.03;7710305;32;39464;-88
2023/06/20 05:04:29;;;;;;;12.25;7.35;;;;;;;21.52;56.65;99806.84;7710599;32;39720;-87
2023/06/20 05:08:46;;;;;;;17.50;6.90;;;;;;;21.65;57.30;99816.00;7710598;32;38483;-77
2023/06/20 05:13:02;;;;;;;10.13;6.72;;;;;;;21.73;56.84;99822.56;7709967;32;37152;-76
2023/06/20 05:17:18;;;;;;;15.70;6.07;;;;;;;21.82;56.79;99826.06;7710606;32;38602;-76
2023/06/20 05:21:35;;;;;;;11.68;7.00;;;;;;;22.06;55.39;99822.47;7710434;32;39908;-76
2023/06/20 05:25:51;;;;;;;15.57;6.32;;;;;;;22.29;54.41;99811.69;7710253;32;38527;-76
2023/06/20 05:30:11;;;;;;;13.77;6.28;;;;;;;22.34;54.42;99815.41;7710079;32;37158;-76
2023/06/20 05:34:27;;;;;;;11.85;6.20;;;;;;;22.32;54.59;99821.31;7710188;32;39045;-77
2023/06/20 05:38:43;;;;;;;10.65;5.82;;;;;;;22.74;53.62;99823.72;7709877;32;40814;-77
2023/06/20 05:43:00;;;;;;;15.85;6.53;;;;;;;22.98;53.35;99813.66;7709720;32;37845;-76
2023/06/20 05:47:19;;;;;;;13.75;6.15;;;;;;;23.10;53.76;99833.09;7709835;32;38111;-75
2023/06/20 05:51:36;;;;;;;11.98;5.93;;;;;;;23.29;54.08;99835.19;7709804;32;39172;-77
2023/06/20 05:55:52;;;;;;;12.55;5.82;;;;;;;23.21;54.10;99833.37;7728993;32;40777;-74
2023/06/20 06:00:12;;;;;;;10.70;6.62;;;;;;;23.42;53.50;99847.03;7736699;32;35891;-73
2023/06/20 06:04:29;;;;;;;11.50;5.97;;;;;;;23.76;52.73;99848.31;7723263;32;37849;-73
2023/06/20 06:08:45;;;;;;;10.88;6.47;;;;;;;23.22;54.02;99855.25;7709361;32;40194;-75
2023/06/20 06:13:02;;;;;;;8.73;5.82;;;;;;;23.45;53.87;99846.31;7705452;32;39880;-75
2023/06/20 06:17:18;;;;;;;10.13;6.50;;;;;;;23.88;52.61;99847.44;7711952;32;38713;-75
2023/06/20 06:21:34;;;;;;;11.80;6.60;;;;;;;24.10;51.23;99843.19;7711488;32;37184;-75
2023/06/20 06:25:52;;;;;;;9.80;5.53;;;;;;;24.36;51.80;99848.16;7711819;32;39308;-76
2023/06/20 06:30:08;;;;;;;10.55;6.20;;;;;;;24.72;49.50;99837.81;7706583;32;155097;-76
2023/06/20 06:34:26;;;;;;;9.48;5.78;;;;;;;24.93;49.06;99845.00;7710868;32;37976;-74
2023/06/20 06:38:48;;;;;;;9.13;5.35;;;;;;;24.81;49.96;99842.38;7712496;32;37803;-82
2023/06/20 06:43:05;;;;;;;11.73;5.75;;;;;;;25.31;48.96;99846.16;7698818;32;39846;-82
2023/06/20 06:47:21;;;;;;;9.90;5.82;;;;;;;24.38;52.07;99843.03;7698404;32;40701;-83
2023/06/20 06:51:38;;;;;;;10.93;6.20;;;;;;;24.87;51.54;99836.13;7712096;32;38677;-81
2023/06/20 06:55:55;;;;;;;9.50;5.78;;;;;;;24.62;51.28;99855.13;7697858;32;37096;-84
2023/06/20 07:00:14;;;;;;;10.48;6.78;;;;;;;25.09;49.77;99854.09;7712286;32;39409;-82
2023/06/20 07:04:34;;;;;;;9.00;5.68;;;;;;;25.39;49.58;99859.06;7711304;32;39959;-82
2023/06/20 07:08:52;;;;;;;8.68;4.97;;;;;;;25.51;48.24;99851.69;7711825;32;38046;-77
2023/06/20 07:13:08;;;;;;;8.85;5.43;;;;;;;25.98;43.96;99850.53;7711415;32;38817;-78
2023/06/20 07:17:25;;;;;;;9.02;5.25;;;;;;;26.21;43.01;99850.47;7711397;32;39024;-77
2023/06/20 07:21:42;;;;;;;11.18;5.28;;;;;;;26.43;42.93;99852.38;7711716;32;40002;-76
2023/06/20 07:25:59;;;;;;;8.13;5.03;;;;;;;26.63;43.11;99857.06;7711053;32;37993;-79
2023/06/20 07:30:15;;;;;;;9.55;5.53;;;;;;;26.60;41.03;99865.00;7711746;32;36860;-78
2023/06/20 07:34:31;;;;;;;11.23;5.10;;;;;;;26.85;42.43;99867.34;7710307;32;39363;-71
2023/06/20 07:38:48;;;;;;;8.00;5.28;;;;;;;26.82;41.59;99865.31;7707745;32;39970;-79
2023/06/20 07:43:04;;;;;;;8.63;5.28;;;;;;;27.09;41.58;99868.03;7711203;32;38021;-83
2023/06/20 07:47:20;;;;;;;8.93;5.18;;;;;;;27.56;41.05;99868.53;7709788;32;37069;-85
2023/06/20 07:51:37;;;;;;;9.95;5.40;;;;;;;27.72;40.06;99861.50;7718777;32;39973;-85
2023/06/20 07:55:54;;;;;;;10.95;5.70;;;;;;;27.73;41.32;99857.50;7710453;32;40241;-85
2023/06/20 08:00:11;;;;;;;8.52;5.22;;;;;;;28.05;39.54;99856.97;7711304;32;38780;-85
2023/06/20 08:04:27;;;;;;;9.38;5.60;;;;;;;27.76;41.54;99863.53;7710267;32;37715;-84
2023/06/20 08:08:44;;;;;;;10.90;5.65;;;;;;;28.29;41.77;99861.16;7711630;32;39768;-85
2023/06/20 08:13:00;;;;;;;8.25;5.53;;;;;;;28.18;39.85;99860.28;7709311;32;40902;-86
2023/06/20 08:17:17;;;;;;;9.68;5.30;;;;;;;28.45;41.11;99860.03;7709164;32;37966;-85
2023/06/20 08:21:33;;;;;;;11.43;5.65;;;;;;;28.71;40.61;99864.63;7708779;32;36663;-86
2023/06/20 08:25:49;;;;;;;9.85;5.12;;;;;;;28.88;39.74;99862.28;7706922;32;39379;-85
2023/06/20 08:30:06;;;;;;;10.15;5.60;;;;;;;28.97;39.05;99854.28;7709595;32;39922;-85
2023/06/20 08:34:23;;;;;;;9.70;5.32;;;;;;;29.10;38.36;99863.19;7710239;32;37907;-83
2023/06/20 08:38:39;;;;;;;11.30;6.00;;;;;;;29.51;39.25;99855.25;7711201;32;37105;-83
2023/06/20 08:42:56;;;;;;;8.02;5.35;;;;;;;29.75;39.00;99855.66;7711170;32;39317;-82
2023/06/20 08:47:13;;;;;;;9.45;5.43;;;;;;;29.84;39.05;99853.31;7697421;32;40824;-82
2023/06/20 08:51:32;;;;;;;7.35;5.05;;;;;;;29.80;38.88;99852.47;7711045;32;37708;-84
2023/06/20 08:55:48;;;;;;;9.90;5.45;;;;;;;30.03;37.73;99856.87;7703163;32;37071;-74
2023/06/20 09:00:06;;;;;;;8.95;5.53;;;;;;;29.48;40.10;99861.69;7669529;32;39451;-85
2023/06/20 09:04:22;;;;;;;8.77;5.30;;;;;;;30.03;38.44;99856.87;7710580;32;40152;-82
2023/06/20 09:08:43;;;;;;;9.73;5.53;;;;;;;30.27;39.21;99856.06;7709904;32;37937;-83
2023/06/20 09:12:59;;;;;;;9.07;5.28;;;;;;;30.01;38.37;99854.50;7710014;32;38105;-83
2023/06/20 09:17:16;;;;;;;8.52;5.62;;;;;;;30.55;37.29;99865.66;7709833;32;39398;-84
2023/06/20 09:21:37;;;;;;;9.05;5.18;;;;;;;30.15;37.73;99860.09;7709709;32;40749;-84
2023/06/20 09:25:54;;;;;;;9.63;5.20;;;;;;;30.98;37.38;99850.66;7709180;32;37715;-85
2023/06/20 09:30:11;;;;;;;12.15;4.90;;;;;;;30.82;38.51;99851.09;7701187;32;37104;-87
2023/06/20 09:34:33;;;;;;;10.07;5.10;;;;;;;30.28;38.61;99845.62;7713924;32;40015;-86
2023/06/20 09:38:55;;;;;;;;;;;;;;;30.56;38.40;99852.41;7697488;32;39816;-83
2023/06/20 09:43:12;;;;;;;8.93;5.05;;;;;;;31.05;37.85;99845.00;7710149;32;38014;-82
2023/06/20 09:47:29;;;;;;;8.63;4.93;;;;;;;31.14;38.62;99838.91;7712857;32;37874;-80
2023/06/20 09:51:48;;;;;;;8.88;5.00;;;;;;;31.45;38.06;99837.09;7713349;32;40241;-80
2023/06/20 09:56:06;;;;;;;7.78;5.05;;;;;;;31.58;37.59;99845.88;7699332;32;40031;-79
2023/06/20 10:00:26;;;;;;;11.48;5.32;;;;;;;31.69;34.49;99848.63;7699391;32;39682;-81
2023/06/20 10:04:44;;;;;;;8.15;5.40;;;;;;;31.83;36.13;99846.47;7713196;32;38133;-80
2023/06/20 10:09:01;;;;;;;8.57;5.30;;;;;;;32.36;35.83;99843.59;7699394;32;40155;-80
2023/06/20 10:13:18;;;;;;;7.93;4.85;;;;;;;32.31;35.62;99850.47;7699232;32;40767;-81
2023/06/20 10:17:47;;;;;;;9.45;5.28;;;;;;;32.38;33.35;99849.59;7713268;32;37900;-80
2023/06/20 10:22:04;;;;;;;9.10;5.07;;;;;;;31.99;33.74;99836.66;7712416;32;37065;-81
2023/06/20 10:26:21;;;;;;;7.10;4.93;;;;;;;32.48;34.42;99837.41;7711445;32;38708;-83
2023/06/20 10:30:49;;;;;;;8.32;4.78;;;;;;;33.05;34.20;99833.06;7698842;32;39581;-83
2023/06/20 10:35:09;;;;;;;10.15;5.20;;;;;;;32.96;31.46;99829.16;7710356;32;38544;-85
2023/06/20 10:39:30;;;;;;;10.10;5.05;;;;;;;32.73;32.57;99827.84;7709682;32;37227;-82
2023/06/20 10:43:58;;;;;;;7.18;4.97;;;;;;;32.83;30.85;99821.28;7696200;32;39018;-84
2023/06/20 10:48:14;;;;;;;8.93;4.82;;;;;;;32.71;30.22;99813.38;7710967;32;40013;-81
2023/06/20 10:52:31;;;;;;;9.60;4.87;;;;;;;32.72;30.34;99806.50;7712444;32;37890;-83
2023/06/20 10:56:47;;;;;;;7.87;5.05;;;;;;;32.54;30.17;99815.94;7711887;32;36864;-83
2023/06/20 11:01:04;;;;;;;11.95;5.03;;;;;;;32.60;30.11;99813.50;7712466;32;40190;-85
2023/06/20 11:05:28;;;;;;;7.93;4.97;;;;;;;32.48;31.04;99814.84;7712245;32;40085;-85
2023/06/20 11:09:44;;;;;;;8.15;4.70;;;;;;;33.05;29.13;99810.47;7712288;32;38022;-84
2023/06/20 11:14:14;;;;;;;8.82;5.07;;;;;;;33.42;31.60;99813.59;7712267;32;37288;-84
2023/06/20 11:18:31;;;;;;;7.65;4.75;;;;;;;33.42;29.42;99805.91;7712215;32;40216;-86
2023/06/20 11:22:48;;;;;;;10.70;5.22;;;;;;;33.23;31.08;99798.94;7712120;32;39649;-83
2023/06/20 11:27:14;;;;;;;13.55;5.03;;;;;;;33.24;31.46;99796.94;7711931;32;37746;-84
2023/06/20 11:31:32;;;;;;;9.25;4.50;;;;;;;33.54;30.79;99784.72;7711942;32;37931;-85
2023/06/20 11:35:51;;;;;;;7.30;4.12;;;;;;;33.35;28.54;99788.28;7711869;32;39739;-83
2023/06/20 11:40:12;;;;;;;7.75;4.82;;;;;;;33.65;28.54;99785.34;7711928;32;39959;-83
2023/06/20 11:44:30;;;;;;;8.35;5.40;;;;;;;33.84;29.31;99786.66;7711075;32;37556;-83
2023/06/20 11:48:50;;;;;;;9.40;4.78;;;;;;;34.15;27.26;99794.16;7709931;32;37279;-84
2023/06/20 11:53:17;;;;;;;7.28;4.50;;;;;;;34.38;28.53;99780.00;7708712;32;39307;-83
2023/06/20 11:57:35;;;;;;;7.32;4.55;;;;;;;34.68;27.11;99780.19;7697371;32;40037;-84
2023/06/20 12:01:52;;;;;;;10.43;4.37;;;;;;;34.45;26.31;99772.59;7710084;32;38667;-83
2023/06/20 12:06:28;;;;;;;6.90;4.57;;;;;;;34.76;26.76;99776.00;7708631;32;37392;-85
2023/06/20 12:11:00;;;;;;;8.30;4.65;;;;;;;35.14;26.87;99761.38;7707697;32;39411;-83
2023/06/20 12:15:20;;;;;;;11.20;5.12;;;;;;;35.38;25.85;99764.09;7709196;32;40862;-86
2023/06/20 12:19:48;;;;;;;7.18;4.80;;;;;;;34.88;26.54;99763.22;7708530;32;37920;-84
2023/06/20 12:24:10;;;;;;;9.07;4.95;;;;;;;35.31;24.26;99765.06;7696447;32;36764;-84
2023/06/20 12:28:26;;;;;;;10.63;4.75;;;;;;;35.33;24.37;99754.84;7711340;32;39450;-85
2023/06/20 12:32:43;;;;;;;6.72;4.60;;;;;;;34.84;24.05;99757.63;7711334;32;40145;-84
2023/06/20 12:36:59;;;;;;;6.32;4.55;;;;;;;34.13;24.35;99752.16;7711202;32;38502;-84
2023/06/20 12:41:16;;;;;;;9.05;4.90;;;;;;;34.17;23.10;99754.97;7711256;32;37905;-84
2023/06/20 12:45:34;;;;;;;8.23;4.93;;;;;;;34.27;26.24;99753.94;7711280;32;39330;-85
2023/06/20 12:49:50;;;;;;;7.25;4.20;;;;;;;34.46;22.52;99749.50;7710234;32;40724;-83
2023/06/20 12:54:06;;;;;;;6.80;4.55;;;;;;;35.00;22.68;99739.84;7696277;32;38123;-85
2023/06/20 12:58:23;;;;;;;8.90;5.30;;;;;;;35.30;23.12;99744.41;7710315;32;37332;-84
2023/06/20 13:02:39;;;;;;;9.38;4.95;;;;;;;34.51;22.58;99743.34;7710917;32;39951;-84
2023/06/20 13:06:56;;;;;;;9.95;4.30;;;;;;;34.86;22.73;99734.50;7710214;32;39871;-84
2023/06/20 13:11:14;;;;;;;12.25;4.65;;;;;;;35.17;21.24;99741.47;7707346;32;37860;-84
2023/06/20 13:15:32;;;;;;;8.30;4.65;;;;;;;35.34;22.56;99733.78;7707316;32;36218;-84
2023/06/20 13:19:49;;;;;;;6.28;4.25;;;;;;;35.06;21.08;99732.41;7707024;32;38417;-85
2023/06/20 13:24:06;;;;;;;7.93;4.15;;;;;;;35.76;22.12;99735.97;7705399;32;40526;-85
2023/06/20 13:28:26;;;;;;;9.70;4.68;;;;;;;36.15;21.64;99724.78;7709906;32;38005;-85
2023/06/20 13:32:46;;;;;;;6.10;4.15;;;;;;;36.43;23.53;99728.84;7705956;32;37784;-84
2023/06/20 13:37:03;;;;;;;7.22;4.55;;;;;;;36.40;20.53;99715.56;7695718;32;39610;-84
2023/06/20 13:41:19;;;;;;;8.75;4.75;;;;;;;36.31;20.94;99726.75;7693763;32;40540;-84
2023/06/20 13:45:35;;;;;;;6.55;4.53;;;;;;;36.37;21.37;99720.09;7707452;32;37335;-84
2023/06/20 13:49:52;;;;;;;6.70;4.12;;;;;;;36.47;21.36;99709.66;7683171;32;37796;-84
2023/06/20 13:54:08;;;;;;;7.40;4.43;;;;;;;37.14;21.32;99708.00;7707363;32;40040;-84
2023/06/20 13:58:24;;;;;;;12.40;4.85;;;;;;;36.92;20.65;99714.34;7706297;32;40052;-85
2023/06/20 14:02:42;;;;;;;7.05;4.68;;;;;;;36.57;19.43;99710.59;7708398;32;37813;-85
2023/06/20 14:06:59;;;;;;;7.35;4.53;;;;;;;36.05;20.49;99721.00;7709082;32;37762;-85
2023/06/20 14:11:15;;;;;;;8.68;4.15;;;;;;;36.00;21.60;99715.88;7709225;32;39159;-84
2023/06/20 14:15:32;;;;;;;6.90;4.40;;;;;;;36.04;23.02;99719.41;7708430;32;40161;-85
2023/06/20 14:19:48;;;;;;;7.45;4.53;;;;;;;36.44;22.12;99716.25;7708798;32;37886;-85
2023/06/20 14:24:04;;;;;;;6.35;4.22;;;;;;;37.13;20.80;99703.53;7708234;32;37329;-85
2023/06/20 14:28:24;;;;;;;7.43;4.50;;;;;;;37.36;20.74;99703.19;7708803;32;40182;-85
2023/06/20 14:32:40;;;;;;;7.90;4.72;;;;;;;37.68;19.61;99706.19;7696300;32;40947;-84
2023/06/20 14:36:57;;;;;;;9.02;5.37;;;;;;;37.35;20.71;99695.91;7711816;32;37849;-85
2023/06/20 14:41:13;;;;;;;9.55;4.68;;;;;;;37.46;20.58;99684.16;7712557;32;37586;-85
2023/06/20 14:45:30;;;;;;;7.53;4.60;;;;;;;37.15;20.73;99689.66;7712030;32;39520;-85
2023/06/20 14:49:46;;;;;;;9.88;5.05;;;;;;;37.36;20.22;99688.97;7712552;32;39957;-84
2023/06/20 14:54:03;;;;;;;7.53;4.57;;;;;;;37.36;20.60;99688.97;7711635;32;37754;-86
2023/06/20 14:58:20;;;;;;;6.18;4.35;;;;;;;37.67;22.25;99687.53;7712102;32;37899;-86
2023/06/20 15:02:37;;;;;;;7.65;5.15;;;;;;;37.92;20.07;99678.88;7712243;32;39315;-85
2023/06/20 15:06:53;;;;;;;10.57;4.75;;;;;;;36.78;20.50;99686.44;7711235;32;39573;-86
2023/06/20 15:11:09;;;;;;;6.95;4.60;;;;;;;36.43;22.44;99689.91;7698235;32;37999;-86
2023/06/20 15:15:26;;;;;;;10.43;4.68;;;;;;;36.63;21.14;99672.63;7697958;32;37109;-85
2023/06/20 15:19:44;;;;;;;8.32;4.82;;;;;;;36.84;21.08;99674.03;7712216;32;39385;-85
2023/06/20 15:24:00;;;;;;;7.72;5.03;;;;;;;37.08;22.93;99664.34;7697691;32;39957;-85
2023/06/20 15:28:19;;;;;;;7.28;4.72;;;;;;;37.21;21.31;99659.47;7711515;32;38639;-85
2023/06/20 15:32:36;;;;;;;8.45;4.90;;;;;;;36.21;21.13;99664.22;7711715;32;37817;-85
2023/06/20 15:36:52;;;;;;;8.60;5.10;;;;;;;36.23;20.64;99670.22;7711445;32;40107;-85
2023/06/20 15:41:08;;;;;;;8.90;5.07;;;;;;;35.61;21.82;99670.31;7711664;32;40018;-86
2023/06/20 15:45:25;;;;;;;7.85;4.60;;;;;;;36.30;22.05;99662.75;7697161;32;39054;-85
2023/06/20 15:49:41;;;;;;;10.05;5.22;;;;;;;36.56;22.46;99652.22;7711510;32;37824;-86
2023/06/20 15:54:01;;;;;;;8.98;5.00;;;;;;;36.40;22.10;99658.78;7699273;32;39450;-85
2023/06/20 15:58:17;;;;;;;8.68;4.97;;;;;;;36.33;23.97;99661.84;7691767;32;40551;-85
2023/06/20 16:02:33;;;;;;;13.77;4.87;;;;;;;36.42;23.47;99659.13;7711306;32;38758;-86
2023/06/20 16:06:50;;;;;;;9.75;5.07;;;;;;;36.48;24.05;99657.34;7710769;32;37870;-85
2023/06/20 16:11:06;;;;;;;9.48;4.80;;;;;;;36.46;22.70;99659.81;7711583;32;40171;-86
2023/06/20 16:15:23;;;;;;;9.30;5.07;;;;;;;36.42;24.32;99657.09;7709433;32;39909;-85
2023/06/20 16:19:39;;;;;;;9.65;4.85;;;;;;;36.70;24.28;99657.44;7710428;32;38502;-86
2023/06/20 16:23:56;;;;;;;10.27;5.20;;;;;;;36.73;24.13;99652.91;7711034;32;37093;-85
2023/06/20 16:28:12;;;;;;;8.30;5.15;;;;;;;36.46;25.15;99654.12;7710329;32;39423;-85
2023/06/20 16:32:29;;;;;;;7.53;4.18;;;;;;;36.23;24.25;99646.75;7711040;32;39813;-85
2023/06/20 16:36:45;;;;;;;8.93;5.10;;;;;;;36.01;24.82;99647.34;7710469;32;37863;-85
2023/06/20 16:41:03;;;;;;;9.45;5.37;;;;;;;35.97;25.30;99649.50;7711075;32;37774;-85
2023/06/20 16:45:19;;;;;;;10.43;5.57;;;;;;;35.58;26.88;99644.91;7710907;32;39205;-85
2023/06/20 16:49:36;;;;;;;9.60;4.95;;;;;;;35.02;27.45;99651.63;7710455;32;40825;-85
2023/06/20 16:53:52;;;;;;;8.43;4.93;;;;;;;34.96;28.29;99645.69;7710076;32;37847;-85
2023/06/20 16:58:09;;;;;;;8.40;5.00;;;;;;;34.66;28.66;99644.75;7710183;32;38377;-85
2023/06/20 17:02:25;;;;;;;8.30;5.12;;;;;;;34.47;29.42;99648.47;7710772;32;39979;-85
2023/06/20 17:06:42;;;;;;;9.45;4.90;;;;;;;34.23;29.77;99648.56;7710607;32;39899;-85
2023/06/20 17:10:59;;;;;;;10.90;4.93;;;;;;;33.95;30.22;99650.75;7710246;32;37653;-85
2023/06/20 17:15:15;;;;;;;8.95;4.82;;;;;;;33.90;30.21;99644.81;7710252;32;38119;-85
2023/06/20 17:19:33;;;;;;;7.80;5.00;;;;;;;33.68;30.50;99645.22;7709944;32;39442;-85
2023/06/20 17:23:49;;;;;;;9.07;5.28;;;;;;;33.50;30.16;99651.19;7710291;32;40596;-85
2023/06/20 17:28:06;;;;;;;12.50;5.65;;;;;;;33.29;30.75;99646.75;7709518;32;38036;-85
2023/06/20 17:32:22;;;;;;;7.57;5.20;;;;;;;33.07;31.47;99649.91;7710022;32;37270;-85
2023/06/20 17:36:38;;;;;;;11.65;5.20;;;;;;;32.61;32.88;99650.66;7712419;32;39407;-87
2023/06/20 17:40:55;;;;;;;8.65;5.80;;;;;;;32.44;34.05;99650.44;7718062;32;40694;-86
2023/06/20 17:45:11;;;;;;;12.82;5.12;;;;;;;32.22;35.96;99660.41;7694520;32;37754;-86
2023/06/20 17:49:27;;;;;;;8.07;5.03;;;;;;;32.12;36.42;99660.16;7710713;32;37194;-85
2023/06/20 17:53:44;;;;;;;7.43;4.93;;;;;;;31.86;36.24;99653.19;7709524;32;39270;-85
2023/06/20 17:58:00;;;;;;;11.65;5.85;;;;;;;31.77;36.29;99664.97;7709578;32;40865;-85
2023/06/20 18:02:18;;;;;;;7.00;5.00;;;;;;;31.49;37.51;99659.59;7697662;32;37964;-85
2023/06/20 18:06:34;;;;;;;9.35;5.47;;;;;;;31.38;36.52;99652.06;7714107;32;37011;-84
2023/06/20 18:10:52;;;;;;;9.43;5.30;;;;;;;31.13;37.29;99651.50;7724443;32;39328;-84
2023/06/20 18:15:09;;;;;;;13.02;6.05;;;;;;;30.92;36.78;99646.81;7718775;32;40773;-85
2023/06/20 18:19:26;;;;;;;12.68;6.03;;;;;;;30.90;36.86;99644.41;7712780;32;38514;-84
2023/06/20 18:23:47;;;;;;;14.63;5.28;;;;;;;30.73;37.68;99642.53;7712578;32;36773;-86
2023/06/20 18:28:04;;;;;;;10.43;5.28;;;;;;;30.75;37.06;99645.72;7712608;32;39901;-86
2023/06/20 18:32:20;;;;;;;8.70;5.45;;;;;;;30.46;37.73;99659.97;7712572;32;39915;-85
2023/06/20 18:36:36;;;;;;;8.25;5.00;;;;;;;30.10;39.26;99665.78;7712428;32;37952;-86
2023/06/20 18:40:53;;;;;;;15.75;9.73;;;;;;;29.91;39.82;99665.03;7712746;32;37162;-86
2023/06/20 18:45:10;;;;;;;9.07;5.70;;;;;;;29.55;40.70;99669.91;7711195;32;39920;-84
2023/06/20 18:49:28;;;;;;;9.15;5.30;;;;;;;29.45;41.14;99674.34;7711671;32;40805;-84
2023/06/20 18:53:44;;;;;;;25.12;6.30;;;;;;;29.12;41.36;99687.56;7711658;32;37919;-88
2023/06/20 18:58:01;;;;;;;11.27;5.60;;;;;;;29.13;41.50;99682.75;7698331;32;37912;-85
2023/06/20 19:02:17;;;;;;;12.10;5.70;;;;;;;28.84;42.66;99689.16;7705718;32;39318;-84
2023/06/20 19:06:33;;;;;;;12.63;6.18;;;;;;;28.65;43.45;99687.50;7710364;32;40018;-83
2023/06/20 19:10:54;;;;;;;10.05;6.25;;;;;;;28.49;43.65;99706.66;7704733;32;37881;-83
2023/06/20 19:15:10;;;;;;;10.38;6.25;;;;;;;28.25;44.42;99709.00;7710430;32;37067;-83
2023/06/20 19:19:27;;;;;;;11.07;5.87;;;;;;;28.31;44.23;99706.59;7711471;32;39312;-85
2023/06/20 19:23:43;;;;;;;8.38;5.82;;;;;;;28.09;45.08;99706.50;7705881;32;40678;-84
2023/06/20 19:28:00;;;;;;;10.45;5.93;;;;;;;28.05;45.10;99719.69;7709748;32;37988;-83
2023/06/20 19:32:17;;;;;;;12.43;6.78;;;;;;;27.66;46.13;99723.03;7711355;32;36625;-88
2023/06/20 19:36:37;;;;;;;12.32;6.47;;;;;;;27.69;45.83;99730.66;7719665;32;39302;-88
2023/06/20 19:40:57;;;;;;;12.10;5.87;;;;;;;27.53;46.20;99741.34;7700971;32;40808;-89
2023/06/20 19:45:13;;;;;;;21.05;7.80;;;;;;;27.39;46.77;99741.22;7710761;32;38122;-88
2023/06/20 19:49:30;;;;;;;10.57;6.12;;;;;;;27.46;46.58;99742.09;7705374;32;39321;-87
2023/06/20 19:53:46;;;;;;;9.38;6.15;;;;;;;27.51;46.38;99738.09;7707612;32;40155;-87
2023/06/20 19:58:04;;;;;;;10.30;6.30;;;;;;;27.23;46.94;99728.25;7708044;32;39902;-88
2023/06/20 20:02:23;;;;;;;12.40;7.05;;;;;;;27.17;46.85;99729.81;7709179;32;38743;-87
2023/06/20 20:06:40;;;;;;;8.90;6.22;;;;;;;27.05;47.03;99732.91;7714368;32;37108;-88
2023/06/20 20:10:58;;;;;;;9.05;5.93;;;;;;;26.95;46.78;99737.19;7717780;32;38327;-85